createdAt,value
2022-12-07T00:01:20.583Z,22.47
2022-12-07T00:03:49.723Z,22.13
2022-12-07T00:06:18.770Z,14.33
2022-12-07T00:08:49.014Z,19.93
2022-12-07T00:11:18.190Z,25.33
2022-12-07T00:13:46.811Z,22.23
2022-12-07T00:16:16.462Z,23.87
2022-12-07T00:18:45.115Z,25.93
2022-12-07T00:21:15.686Z,23.77
2022-12-07T00:23:45.333Z,21.87
2022-12-07T00:26:16.302Z,23.27
2022-12-07T00:28:47.162Z,20.73
2022-12-07T00:31:16.970Z,18.97
2022-12-07T00:33:45.398Z,21.73
2022-12-07T00:36:16.127Z,23.47
2022-12-07T00:38:44.073Z,24.40
2022-12-07T00:41:15.213Z,27.93
2022-12-07T00:43:44.643Z,19.33
2022-12-07T00:46:12.888Z,22.57
2022-12-07T00:48:40.973Z,17.90
2022-12-07T00:51:09.616Z,23.10
2022-12-07T00:53:41.358Z,22.03
2022-12-07T00:56:11.126Z,18.93
2022-12-07T00:58:40.183Z,18.87
2022-12-07T01:01:09.660Z,19.37
2022-12-07T01:03:38.259Z,20.17
2022-12-07T01:06:06.247Z,18.23
2022-12-07T01:08:34.130Z,20.80
2022-12-07T01:11:03.129Z,17.67
2022-12-07T01:13:31.233Z,18.27
2022-12-07T01:16:02.202Z,20.77
2022-12-07T01:18:31.144Z,22.57
2022-12-07T01:21:00.617Z,20.53
2022-12-07T01:23:28.814Z,22.33
2022-12-07T01:25:57.847Z,20.13
2022-12-07T01:28:25.949Z,18.33
2022-12-07T01:31:00.973Z,21.03
2022-12-07T01:33:30.441Z,24.37
2022-12-07T01:36:02.865Z,23.90
2022-12-07T01:38:31.652Z,20.37
2022-12-07T01:41:00.222Z,19.73
2022-12-07T01:43:30.734Z,23.97
2022-12-07T01:45:59.973Z,19.93
2022-12-07T01:48:31.512Z,28.20
2022-12-07T01:51:04.717Z,22.37
2022-12-07T01:53:36.012Z,24.87
2022-12-07T01:56:03.785Z,21.43
2022-12-07T01:58:31.826Z,22.57
2022-12-07T02:01:01.207Z,22.37
2022-12-07T02:03:34.315Z,20.50
2022-12-07T02:06:02.512Z,24.40
2022-12-07T02:08:30.695Z,18.80
2022-12-07T02:10:58.353Z,16.50
2022-12-07T02:13:28.144Z,21.87
2022-12-07T02:16:14.237Z,15.33
2022-12-07T02:18:51.673Z,17.60
2022-12-07T02:21:31.516Z,16.03
2022-12-07T02:24:33.396Z,18.37
2022-12-07T02:27:14.956Z,17.77
2022-12-07T02:29:49.095Z,15.67
2022-12-07T02:32:25.853Z,19.10
2022-12-07T02:34:59.373Z,17.33
2022-12-07T02:37:37.525Z,16.90
2022-12-07T02:40:11.834Z,17.50
2022-12-07T02:42:44.773Z,19.60
2022-12-07T02:45:16.076Z,17.47
2022-12-07T02:47:45.778Z,15.93
2022-12-07T02:50:13.829Z,15.07
2022-12-07T02:52:42.490Z,16.57
2022-12-07T02:55:10.567Z,17.20
2022-12-07T02:57:52.187Z,17.00
2022-12-07T03:00:22.407Z,17.10
2022-12-07T03:02:57.396Z,18.87
2022-12-07T03:05:45.519Z,17.97
2022-12-07T03:08:17.547Z,16.03
2022-12-07T03:10:56.137Z,15.73
2022-12-07T03:13:30.321Z,15.47
2022-12-07T03:16:04.545Z,19.43
2022-12-07T03:18:37.668Z,15.83
2022-12-07T03:21:13.299Z,14.27
2022-12-07T03:23:44.235Z,16.90
2022-12-07T03:26:16.669Z,15.50
2022-12-07T03:28:50.592Z,16.37
2022-12-07T03:31:23.769Z,11.00
2022-12-07T03:33:56.066Z,15.10
2022-12-07T03:36:28.552Z,12.57
2022-12-07T03:39:02.608Z,15.03
2022-12-07T03:41:33.112Z,14.13
2022-12-07T03:44:03.593Z,18.33
2022-12-07T03:46:39.656Z,11.43
2022-12-07T03:49:13.508Z,13.83
2022-12-07T03:51:47.602Z,10.87
2022-12-07T03:54:21.067Z,12.60
2022-12-07T03:56:50.510Z,13.07
2022-12-07T03:59:20.032Z,15.30
2022-12-07T04:01:55.152Z,13.57
2022-12-07T04:04:23.316Z,12.03
2022-12-07T04:06:50.989Z,11.40
2022-12-07T04:09:18.636Z,11.10
2022-12-07T04:11:46.332Z,12.40
2022-12-07T04:14:20.174Z,13.63
2022-12-07T04:16:50.156Z,11.83
2022-12-07T04:19:19.425Z,10.70
2022-12-07T04:21:47.235Z,11.10
2022-12-07T04:24:16.262Z,10.00
2022-12-07T04:26:45.472Z,15.77
2022-12-07T04:29:13.406Z,10.93
2022-12-07T04:31:41.632Z,13.07
2022-12-07T04:34:11.160Z,13.33
2022-12-07T04:36:40.136Z,10.77
2022-12-07T04:39:08.885Z,11.67
2022-12-07T04:41:36.535Z,15.63
2022-12-07T04:44:08.226Z,11.60
2022-12-07T04:46:36.236Z,13.43
2022-12-07T04:49:04.087Z,12.67
2022-12-07T04:51:33.057Z,10.83
2022-12-07T04:54:00.653Z,12.67
2022-12-07T04:56:28.488Z,11.60
2022-12-07T04:58:56.655Z,12.07
2022-12-07T05:01:25.304Z,11.30
2022-12-07T05:03:53.314Z,10.30
2022-12-07T05:06:21.412Z,19.80
2022-12-07T05:08:50.465Z,14.83
2022-12-07T05:11:32.142Z,9.53
2022-12-07T05:13:59.844Z,11.37
2022-12-07T05:16:27.629Z,14.03
2022-12-07T05:18:55.358Z,10.30
2022-12-07T05:21:23.397Z,13.67
2022-12-07T05:23:52.853Z,8.87
2022-12-07T05:26:20.649Z,10.87
2022-12-07T05:28:52.459Z,11.87
2022-12-07T05:31:20.775Z,13.57
2022-12-07T05:33:48.899Z,11.77
2022-12-07T05:36:16.646Z,11.17
2022-12-07T05:38:44.294Z,11.47
2022-12-07T05:41:29.832Z,9.83
2022-12-07T05:43:57.562Z,11.63
2022-12-07T05:46:25.219Z,14.60
2022-12-07T05:48:52.913Z,14.10
2022-12-07T05:51:20.577Z,13.47
2022-12-07T05:53:48.212Z,11.63
2022-12-07T05:56:17.561Z,14.93
2022-12-07T05:59:02.888Z,10.97
2022-12-07T06:01:30.569Z,14.93
2022-12-07T06:03:58.227Z,9.23
2022-12-07T06:06:26.006Z,11.73
2022-12-07T06:08:53.765Z,11.13
2022-12-07T06:11:40.431Z,13.33
2022-12-07T06:14:10.381Z,9.57
2022-12-07T06:16:38.100Z,11.43
2022-12-07T06:19:05.861Z,7.93
2022-12-07T06:21:33.753Z,11.60
2022-12-07T06:24:01.637Z,6.87
2022-12-07T06:26:30.667Z,8.27
2022-12-07T06:28:58.515Z,8.47
2022-12-07T06:31:26.407Z,16.93
2022-12-07T06:33:59.513Z,8.57
2022-12-07T06:36:27.518Z,10.30
2022-12-07T06:38:55.477Z,8.33
2022-12-07T06:41:24.002Z,9.70
2022-12-07T06:43:56.198Z,8.63
2022-12-07T06:46:24.963Z,6.67
2022-12-07T06:48:52.889Z,8.60
2022-12-07T06:51:20.918Z,5.37
2022-12-07T06:53:48.678Z,8.10
2022-12-07T06:56:16.786Z,8.23
2022-12-07T06:58:44.893Z,7.10
2022-12-07T07:01:15.813Z,5.90
2022-12-07T07:03:43.649Z,8.33
2022-12-07T07:06:11.922Z,6.20
2022-12-07T07:08:51.975Z,8.40
2022-12-07T07:11:20.056Z,8.47
2022-12-07T07:13:47.778Z,4.13
2022-12-07T07:16:16.833Z,10.00
2022-12-07T07:18:48.176Z,4.67
2022-12-07T07:21:15.822Z,8.93
2022-12-07T07:23:43.512Z,4.57
2022-12-07T07:26:11.211Z,8.17
2022-12-07T07:28:39.231Z,4.87
2022-12-07T07:31:06.989Z,11.43
2022-12-07T07:33:36.100Z,7.03
2022-12-07T07:36:03.726Z,4.10
2022-12-07T07:38:31.361Z,3.17
2022-12-07T07:40:59.018Z,4.50
2022-12-07T07:43:26.841Z,6.60
2022-12-07T07:45:54.588Z,2.97
2022-12-07T07:48:23.610Z,6.27
2022-12-07T07:50:52.754Z,6.97
2022-12-07T07:53:20.415Z,6.17
2022-12-07T07:55:53.339Z,6.50
2022-12-07T07:58:21.092Z,6.90
2022-12-07T08:00:48.734Z,7.47
2022-12-07T08:03:16.466Z,3.37
2022-12-07T08:05:44.198Z,7.17
2022-12-07T08:08:13.319Z,3.33
2022-12-07T08:10:41.333Z,3.53
2022-12-07T08:13:15.417Z,5.00
2022-12-07T08:15:45.791Z,4.80
2022-12-07T08:18:14.494Z,5.93
2022-12-07T08:20:43.335Z,3.63
2022-12-07T08:23:13.218Z,5.63
2022-12-07T08:25:41.237Z,4.03
2022-12-07T08:28:09.178Z,4.13
2022-12-07T08:30:36.876Z,5.30
2022-12-07T08:33:04.648Z,6.33
2022-12-07T08:35:34.737Z,10.97
2022-12-07T08:38:03.227Z,4.40
2022-12-07T08:40:32.556Z,2.17
2022-12-07T08:43:00.200Z,4.90
2022-12-07T08:45:28.675Z,3.20
2022-12-07T08:48:02.812Z,3.27
2022-12-07T08:50:31.041Z,1.53
2022-12-07T08:53:01.538Z,4.07
2022-12-07T08:55:30.486Z,4.83
2022-12-07T08:58:01.130Z,4.60
2022-12-07T09:00:29.141Z,1.87
2022-12-07T09:02:56.851Z,4.03
2022-12-07T09:05:24.719Z,3.27
2022-12-07T09:07:57.487Z,1.07
2022-12-07T09:10:25.313Z,3.27
2022-12-07T09:12:52.984Z,8.77
2022-12-07T09:15:22.126Z,5.57
2022-12-07T09:17:49.853Z,6.33
2022-12-07T09:20:17.576Z,7.07
2022-12-07T09:22:45.178Z,13.17
2022-12-07T09:25:13.060Z,6.60
2022-12-07T09:27:41.124Z,7.60
2022-12-07T09:30:09.782Z,2.80
2022-12-07T09:32:38.825Z,3.37
2022-12-07T09:35:07.378Z,5.10
2022-12-07T09:37:36.984Z,3.67
2022-12-07T09:40:06.770Z,5.57
2022-12-07T09:42:37.829Z,5.47
2022-12-07T09:45:08.784Z,8.53
2022-12-07T09:47:36.501Z,2.60
2022-12-07T09:50:14.042Z,1.17
2022-12-07T09:52:42.256Z,2.10
2022-12-07T09:55:14.387Z,4.57
2022-12-07T09:57:43.677Z,3.33
2022-12-07T10:00:16.760Z,1.87
2022-12-07T10:02:46.866Z,2.50
2022-12-07T10:05:23.930Z,2.30
2022-12-07T10:07:52.556Z,6.60
2022-12-07T10:10:25.111Z,2.07
2022-12-07T10:12:58.902Z,2.87
2022-12-07T10:15:44.038Z,4.57
2022-12-07T10:18:29.976Z,4.47
2022-12-07T10:21:14.475Z,6.93
2022-12-07T10:23:43.710Z,4.63
2022-12-07T10:26:28.645Z,15.33
2022-12-07T10:28:57.455Z,12.57
2022-12-07T10:31:25.419Z,24.27
2022-12-07T10:33:55.404Z,22.00
2022-12-07T10:36:27.642Z,7.40
2022-12-07T10:39:01.856Z,8.10
2022-12-07T10:41:29.920Z,3.53
2022-12-07T10:43:58.989Z,5.10
2022-12-07T10:46:48.324Z,3.73
2022-12-07T10:49:49.682Z,5.07
2022-12-07T10:52:32.983Z,7.97
2022-12-07T10:55:17.934Z,15.33
2022-12-07T10:58:00.575Z,3.60
2022-12-07T11:00:37.195Z,4.13
2022-12-07T11:03:32.152Z,5.70
2022-12-07T11:06:13.711Z,6.73
2022-12-07T11:08:57.095Z,3.80
2022-12-07T11:11:34.023Z,5.20
2022-12-07T11:14:13.582Z,4.90
2022-12-07T11:16:55.132Z,6.23
2022-12-07T11:19:36.300Z,9.53
2022-12-07T11:22:11.149Z,6.63
2022-12-07T11:24:47.641Z,2.23
2022-12-07T11:27:25.852Z,5.87
2022-12-07T11:30:04.744Z,11.67
2022-12-07T11:32:46.265Z,4.83
2022-12-07T11:35:24.616Z,6.93
2022-12-07T11:37:58.117Z,3.67
2022-12-07T11:40:35.215Z,9.30
2022-12-07T11:43:06.751Z,4.87
2022-12-07T11:45:35.938Z,7.60
2022-12-07T11:48:10.329Z,6.17
2022-12-07T11:50:42.684Z,6.57
2022-12-07T11:53:18.739Z,8.50
2022-12-07T11:55:53.113Z,6.23
2022-12-07T11:58:44.456Z,5.33
2022-12-07T12:01:31.187Z,6.67
2022-12-07T12:04:07.062Z,2.27
2022-12-07T12:06:36.065Z,6.00
2022-12-07T12:15:25.635Z,3.87
2022-12-07T12:18:11.394Z,8.30
2022-12-07T12:20:45.860Z,8.97
2022-12-07T12:23:17.526Z,11.13
2022-12-07T12:25:49.137Z,12.47
2022-12-07T12:28:31.784Z,15.00
2022-12-07T12:31:14.659Z,12.77
2022-12-07T12:33:49.673Z,19.13
2022-12-07T12:36:27.325Z,11.37
2022-12-07T12:39:14.702Z,10.50
2022-12-07T12:42:08.993Z,12.70
2022-12-07T12:45:06.160Z,14.37
2022-12-07T12:48:28.886Z,10.03
2022-12-07T12:51:39.169Z,10.47
2022-12-07T12:54:12.966Z,9.73
2022-12-07T12:56:45.525Z,14.17
2022-12-07T12:59:24.620Z,10.00
2022-12-07T13:01:55.445Z,9.30
2022-12-07T13:04:37.520Z,12.33
2022-12-07T13:07:05.234Z,7.70
2022-12-07T13:09:36.249Z,5.27
2022-12-07T13:12:07.378Z,5.67
2022-12-07T13:14:56.791Z,8.50
2022-12-07T13:18:02.324Z,2.17
2022-12-07T13:20:52.240Z,5.80
2022-12-07T13:23:32.352Z,4.93
2022-12-07T13:26:19.639Z,5.90
2022-12-07T13:28:49.407Z,5.53
2022-12-07T13:31:34.516Z,3.17
2022-12-07T13:34:03.783Z,2.63
2022-12-07T13:36:36.768Z,4.40
2022-12-07T13:39:18.809Z,6.30
2022-12-07T13:41:51.595Z,2.77
2022-12-07T13:44:20.481Z,8.33
2022-12-07T13:46:56.011Z,3.37
2022-12-07T13:49:26.417Z,8.05
2022-12-07T13:51:57.060Z,2.20
2022-12-07T13:54:24.829Z,5.57
2022-12-07T13:56:55.297Z,3.27
2022-12-07T13:59:26.089Z,6.22
2022-12-07T14:01:55.489Z,10.53
2022-12-07T14:04:41.424Z,7.83
2022-12-07T14:07:26.303Z,4.43
2022-12-07T14:09:59.869Z,8.33
2022-12-07T14:12:29.926Z,9.23
2022-12-07T14:14:58.816Z,5.87
2022-12-07T14:17:28.201Z,4.87
2022-12-07T14:19:58.062Z,3.87
2022-12-07T14:22:37.900Z,4.33
2022-12-07T14:25:21.524Z,5.63
2022-12-07T14:27:54.022Z,1.67
2022-12-07T14:30:22.542Z,4.37
2022-12-07T14:32:54.350Z,4.87
2022-12-07T14:35:22.657Z,3.00
2022-12-07T14:37:52.086Z,3.93
2022-12-07T14:40:22.062Z,4.87
2022-12-07T14:42:53.335Z,5.23
2022-12-07T14:45:23.404Z,3.70
2022-12-07T14:53:36.671Z,6.67
2022-12-07T14:56:06.553Z,3.70
2022-12-07T14:58:34.529Z,2.57
2022-12-07T15:01:03.389Z,3.47
2022-12-07T15:03:31.791Z,7.73
2022-12-07T15:06:00.353Z,5.57
2022-12-07T15:08:28.726Z,3.20
2022-12-07T15:10:58.872Z,2.30
2022-12-07T15:13:44.382Z,2.80
2022-12-07T15:16:14.918Z,5.30
2022-12-07T15:18:58.413Z,6.50
2022-12-07T15:21:30.925Z,10.77
2022-12-07T15:23:59.283Z,7.80
2022-12-07T15:26:28.719Z,3.23
2022-12-07T15:28:56.616Z,5.63
2022-12-07T15:31:53.917Z,3.40
2022-12-07T15:34:12.487Z,5.37
2022-12-07T15:36:40.776Z,5.40
2022-12-07T15:39:15.918Z,6.57
2022-12-07T15:41:45.030Z,6.57
2022-12-07T15:44:32.260Z,4.50
2022-12-07T15:47:00.634Z,11.87
2022-12-07T15:49:29.220Z,3.63
2022-12-07T15:51:57.195Z,5.93
2022-12-07T15:54:26.991Z,7.82
2022-12-07T15:56:57.153Z,4.40
2022-12-07T15:59:25.412Z,7.20
2022-12-07T16:01:53.382Z,5.40
2022-12-07T16:04:21.344Z,5.97
2022-12-07T16:06:49.061Z,5.40
2022-12-07T16:09:16.704Z,7.28
2022-12-07T16:11:44.559Z,6.00
2022-12-07T16:14:13.760Z,5.33
2022-12-07T16:16:42.638Z,7.07
2022-12-07T16:19:12.010Z,9.33
2022-12-07T16:21:40.343Z,6.63
2022-12-07T16:24:09.177Z,9.27
2022-12-07T16:26:37.098Z,7.40
2022-12-07T16:29:04.849Z,7.40
2022-12-07T16:31:34.821Z,8.07
2022-12-07T16:34:02.613Z,8.03
2022-12-07T16:39:19.159Z,6.03
2022-12-07T16:41:46.937Z,9.93
2022-12-07T16:44:15.910Z,11.17
2022-12-07T16:46:45.105Z,18.17
2022-12-07T16:49:14.585Z,26.40
2022-12-07T16:51:43.754Z,47.93
2022-12-07T16:54:12.688Z,22.37
2022-12-07T16:56:41.166Z,14.37
2022-12-07T16:59:08.961Z,12.27
2022-12-07T17:01:37.145Z,8.83
2022-12-07T17:04:06.462Z,8.90
2022-12-07T17:06:34.261Z,18.83
2022-12-07T17:09:01.924Z,9.30
2022-12-07T17:11:32.619Z,7.83
2022-12-07T17:14:17.937Z,6.07
2022-12-07T17:16:46.097Z,7.93
2022-12-07T17:19:17.322Z,7.30
2022-12-07T17:21:46.083Z,11.27
2022-12-07T17:24:16.227Z,5.63
2022-12-07T17:26:45.991Z,7.07
2022-12-07T17:29:15.806Z,9.10
2022-12-07T17:31:49.517Z,8.43
2022-12-07T17:34:21.180Z,7.20
2022-12-07T17:36:48.913Z,6.77
2022-12-07T17:39:19.063Z,2.83
2022-12-07T17:42:04.810Z,2.57
2022-12-07T17:44:33.527Z,3.00
2022-12-07T17:47:02.827Z,3.60
2022-12-07T17:49:32.243Z,4.47
2022-12-07T17:52:17.770Z,4.23
2022-12-07T17:54:45.536Z,3.37
2022-12-07T17:57:13.194Z,1.50
2022-12-07T17:59:40.878Z,1.50
2022-12-07T18:02:11.747Z,1.93
2022-12-07T18:04:41.903Z,1.87
2022-12-07T18:07:09.850Z,1.83
2022-12-07T18:09:37.619Z,2.30
2022-12-07T18:12:05.707Z,7.40
2022-12-07T18:14:33.355Z,6.43
2022-12-07T18:17:01.117Z,6.43
2022-12-07T18:19:28.925Z,6.87
2022-12-07T18:21:58.096Z,3.73
2022-12-07T18:24:25.815Z,5.73
2022-12-07T18:26:53.567Z,6.33
2022-12-07T18:29:21.455Z,4.47
2022-12-07T18:31:49.598Z,3.90
2022-12-07T18:34:19.997Z,4.07
2022-12-07T18:36:49.570Z,5.57
2022-12-07T18:39:20.123Z,4.83
2022-12-07T18:41:48.624Z,5.03
2022-12-07T18:44:16.866Z,10.47
2022-12-07T18:46:45.130Z,4.87
2022-12-07T18:49:14.919Z,8.33
2022-12-07T18:51:45.014Z,5.73
2022-12-07T18:54:12.714Z,5.77
2022-12-07T18:56:41.779Z,7.37
2022-12-07T18:59:32.469Z,9.67
2022-12-07T19:02:00.581Z,11.00
2022-12-07T19:04:28.394Z,12.00
2022-12-07T19:06:56.036Z,8.47
2022-12-07T19:09:23.858Z,10.00
2022-12-07T19:11:52.977Z,13.60
2022-12-07T19:14:24.264Z,8.40
2022-12-07T19:16:54.247Z,10.00
2022-12-07T19:19:25.892Z,10.80
2022-12-07T19:21:53.581Z,11.93
2022-12-07T19:24:23.621Z,8.30
2022-12-07T19:26:53.618Z,13.40
2022-12-07T19:29:22.239Z,6.93
2022-12-07T19:31:50.251Z,7.90
2022-12-07T19:34:18.743Z,8.90
2022-12-07T19:36:48.007Z,11.60
2022-12-07T19:39:16.257Z,10.57
2022-12-07T19:41:44.837Z,9.50
2022-12-07T19:44:15.574Z,13.73
2022-12-07T19:46:45.643Z,9.53
2022-12-07T19:49:15.950Z,8.67
2022-12-07T19:51:44.640Z,7.17
2022-12-07T19:54:14.667Z,12.23
2022-12-07T19:56:43.702Z,12.47
2022-12-07T19:59:11.777Z,12.43
2022-12-07T20:01:42.067Z,6.43
2022-12-07T20:04:13.586Z,8.67
2022-12-07T20:06:42.899Z,7.97
2022-12-07T20:09:11.074Z,6.10
2022-12-07T20:11:56.532Z,6.13
2022-12-07T20:14:25.027Z,7.53
2022-12-07T20:16:54.395Z,7.33
2022-12-07T20:19:22.247Z,8.20
2022-12-07T20:21:50.811Z,8.97
2022-12-07T20:24:20.403Z,10.83
2022-12-07T20:26:49.911Z,6.47
2022-12-07T20:29:20.109Z,6.70
2022-12-07T20:31:49.394Z,8.10
2022-12-07T20:34:18.894Z,6.97
2022-12-07T20:36:46.750Z,7.83
2022-12-07T20:39:15.186Z,7.83
2022-12-07T20:42:00.579Z,7.77
2022-12-07T20:44:28.971Z,7.60
2022-12-07T20:46:56.842Z,7.97
2022-12-07T20:49:25.899Z,8.10
2022-12-07T20:51:53.848Z,8.37
2022-12-07T20:54:21.820Z,8.03
2022-12-07T20:56:49.633Z,6.77
2022-12-07T20:59:17.827Z,8.63
2022-12-07T21:01:46.386Z,7.53
2022-12-07T21:04:15.642Z,10.67
2022-12-07T21:06:44.861Z,5.73
2022-12-07T21:09:12.857Z,12.83
2022-12-07T21:11:41.365Z,5.67
2022-12-07T21:14:09.741Z,9.93
2022-12-07T21:16:37.678Z,8.97
2022-12-07T21:19:05.946Z,5.50
2022-12-07T21:21:34.877Z,8.23
2022-12-07T21:24:06.200Z,9.70
2022-12-07T21:26:35.920Z,9.17
2022-12-07T21:29:05.131Z,9.10
2022-12-07T21:31:33.524Z,7.93
2022-12-07T21:34:03.239Z,12.10
2022-12-07T21:36:31.394Z,9.90
2022-12-07T21:38:59.801Z,6.97
2022-12-07T21:41:31.180Z,9.00
2022-12-07T21:43:59.609Z,11.87
2022-12-07T21:46:33.690Z,7.30
2022-12-07T21:49:04.292Z,9.33
2022-12-07T21:51:32.522Z,9.20
2022-12-07T21:54:01.879Z,8.40
2022-12-07T21:56:33.512Z,11.43
2022-12-07T21:59:03.486Z,8.47
2022-12-07T22:01:35.652Z,9.23
2022-12-07T22:04:05.210Z,16.57
2022-12-07T22:06:34.857Z,10.07
2022-12-07T22:09:02.654Z,6.50
2022-12-07T22:11:31.828Z,9.43
2022-12-07T22:14:17.435Z,10.13
2022-12-07T22:16:45.202Z,11.90
2022-12-07T22:19:13.917Z,15.17
2022-12-07T22:21:41.728Z,12.13
2022-12-07T22:24:11.198Z,9.53
2022-12-07T22:26:40.669Z,14.87
2022-12-07T22:29:09.086Z,6.67
2022-12-07T22:31:38.270Z,11.50
2022-12-07T22:34:06.409Z,8.57
2022-12-07T22:36:35.390Z,8.77
2022-12-07T22:39:03.750Z,10.13
2022-12-07T22:41:33.348Z,8.30
2022-12-07T22:44:07.183Z,11.87
2022-12-07T22:46:35.782Z,5.37
2022-12-07T22:49:03.981Z,9.07
2022-12-07T22:51:33.947Z,11.23
2022-12-07T22:54:03.370Z,9.93
2022-12-07T22:56:33.722Z,9.20
2022-12-07T22:59:03.298Z,10.83
2022-12-07T23:01:31.216Z,7.67
2022-12-07T23:03:59.333Z,9.53
2022-12-07T23:06:29.670Z,8.93
2022-12-07T23:08:58.803Z,8.90
2022-12-07T23:11:47.290Z,11.17
2022-12-07T23:14:18.360Z,8.23
2022-12-07T23:16:46.905Z,10.87
2022-12-07T23:19:15.013Z,7.20
2022-12-07T23:21:42.933Z,7.83
2022-12-07T23:24:13.263Z,11.03
2022-12-07T23:26:41.161Z,9.90
2022-12-07T23:29:13.089Z,9.03
2022-12-07T23:31:45.071Z,11.63
2022-12-07T23:34:12.854Z,9.47
2022-12-07T23:36:40.568Z,9.37
2022-12-07T23:39:08.474Z,11.63
2022-12-07T23:41:36.107Z,9.40
2022-12-07T23:44:03.989Z,7.77
2022-12-07T23:46:33.804Z,8.77
2022-12-07T23:49:05.719Z,10.00
2022-12-07T23:51:33.956Z,7.13
2022-12-07T23:54:02.272Z,10.60
2022-12-07T23:56:32.860Z,11.17
2022-12-07T23:59:03.879Z,8.33
